Time;durP1;ratioP1;P1;durP2;ratioP2;P2;SDS_P1;SDS_P2;PMS_P1;PMS_P2;Temp;Humidity;BMP_temperature;BMP_pressure;BME280_temperature;BME280_humidity;BME280_pressure;Samples;Min_cycle;Max_cycle;Signal;HPM_P1;HPM_P2
2024/04/06 00:00:08;;;;;;;3.40;1.10;;;;;;;-145.69;53.23;52111.69;5089625;28;20293;-77
2024/04/06 00:02:34;;;;;;;2.58;1.23;;;;;;;-145.69;52.60;52139.41;5092576;28;20198;-76
2024/04/06 00:05:03;;;;;;;3.17;1.55;;;;;;;-145.69;53.30;52151.28;5090498;28;20228;-76
2024/04/06 00:07:28;;;;;;;3.30;1.33;;;;;;;-145.69;53.97;52147.34;5091808;28;20201;-76
2024/04/06 00:09:55;;;;;;;2.58;1.10;;;;;;;-145.69;53.27;52147.34;5091281;28;20683;-76
2024/04/06 00:12:21;;;;;;;1.85;1.10;;;;;;;-145.69;51.94;52121.59;5092662;28;20194;-77
2024/04/06 00:14:48;;;;;;;3.90;1.05;;;;;;;-145.69;51.83;52177.03;5092036;28;20726;-76
2024/04/06 00:17:13;;;;;;;3.33;1.20;;;;;;;-145.69;51.98;52186.94;5090735;28;20234;-76
2024/04/06 00:19:40;;;;;;;3.25;1.27;;;;;;;-145.69;51.88;52157.25;5092034;28;20649;-77
2024/04/06 00:22:07;;;;;;;3.28;1.30;;;;;;;-145.69;52.32;52139.41;5092421;28;20280;-76
2024/04/06 00:24:33;;;;;;;6.07;1.40;;;;;;;-145.69;52.59;52131.50;5092227;28;20207;-76
2024/04/06 00:27:01;;;;;;;4.20;1.10;;;;;;;-145.69;52.83;52159.22;5073421;28;20234;-75
2024/04/06 00:29:27;;;;;;;2.90;1.33;;;;;;;-145.69;53.68;52123.56;5083773;28;20526;-78
2024/04/06 00:31:53;;;;;;;4.13;1.30;;;;;;;-145.69;52.86;52167.13;5092194;28;20213;-77
2024/04/06 00:34:19;;;;;;;6.05;1.20;;;;;;;-145.69;53.72;52147.34;5091892;28;20198;-77
2024/04/06 00:36:45;;;;;;;5.57;1.33;;;;;;;-145.69;53.60;52167.13;5092111;28;20706;-76
2024/04/06 00:39:13;;;;;;;2.93;1.03;;;;;;;-145.69;53.53;52155.25;5095651;28;20202;-77
2024/04/06 00:41:38;;;;;;;7.45;1.10;;;;;;;-145.69;53.74;52155.25;5095901;28;20205;-77
2024/04/06 00:44:05;;;;;;;2.78;1.23;;;;;;;-145.69;53.55;52157.25;5075948;28;20208;-77
2024/04/06 00:46:30;;;;;;;4.77;1.10;;;;;;;-145.69;54.33;52145.34;5075318;28;20256;-76
2024/04/06 00:48:57;;;;;;;3.47;1.20;;;;;;;-145.69;54.69;52155.25;5075429;28;20207;-77
2024/04/06 00:51:23;;;;;;;2.58;1.13;;;;;;;-145.69;54.15;52171.09;5075162;28;20203;-77
2024/04/06 00:53:49;;;;;;;2.85;1.17;;;;;;;-145.69;54.61;52147.34;5075093;28;20723;-77
2024/04/06 00:56:17;;;;;;;1.38;0.93;;;;;;;-145.69;55.02;52157.25;5075025;28;20210;-77
2024/04/06 00:58:45;;;;;;;1.67;0.90;;;;;;;-145.69;55.04;52161.19;5094536;28;20198;-77
2024/04/06 01:01:10;;;;;;;2.15;1.10;;;;;;;-145.69;55.33;52202.78;5095538;28;20213;-78
2024/04/06 01:03:40;;;;;;;2.77;1.00;;;;;;;-145.69;55.43;52161.19;5095440;28;20206;-76
2024/04/06 01:06:05;;;;;;;2.63;1.30;;;;;;;-145.69;55.66;52159.22;5095246;28;20222;-77
2024/04/06 01:08:33;;;;;;;1.57;1.00;;;;;;;-145.69;55.59;52155.25;5095216;28;20666;-77
2024/04/06 01:11:00;;;;;;;5.57;1.17;;;;;;;-145.69;55.44;52127.53;5095217;28;20225;-76
2024/04/06 01:13:28;;;;;;;1.17;0.93;;;;;;;-145.69;55.56;52167.13;5095382;28;20198;-76
2024/04/06 01:15:53;;;;;;;2.40;1.00;;;;;;;-145.69;55.17;52163.19;5094163;28;20653;-77
2024/04/06 01:18:20;;;;;;;1.57;0.90;;;;;;;-145.69;54.77;52147.34;5077533;28;20288;-77
2024/04/06 01:20:47;;;;;;;1.65;1.02;;;;;;;-145.69;55.42;52159.22;5074047;28;20199;-78
2024/04/06 01:23:14;;;;;;;3.70;1.20;;;;;;;-145.69;55.46;52177.03;5074934;28;20199;-77
2024/04/06 01:25:41;;;;;;;1.23;0.90;;;;;;;-145.69;56.22;52161.19;5074833;28;20254;-76
2024/04/06 01:28:07;;;;;;;7.60;1.40;;;;;;;-145.69;55.94;52186.94;5074582;28;20205;-77
2024/04/06 01:30:33;;;;;;;2.20;1.20;;;;;;;-145.69;56.97;52177.03;5093565;28;20198;-77
2024/04/06 01:32:59;;;;;;;3.13;1.30;;;;;;;-145.69;56.47;52159.22;5091848;28;20206;-78
2024/04/06 01:35:25;;;;;;;1.67;0.90;;;;;;;-145.69;57.04;52175.06;5074295;28;20649;-76
2024/04/06 01:37:51;;;;;;;4.97;0.90;;;;;;;-145.69;56.54;52175.06;5074735;28;20206;-77
2024/04/06 01:40:17;;;;;;;1.63;0.90;;;;;;;-145.69;57.08;52151.28;5074591;28;20554;-76
2024/04/06 01:42:45;;;;;;;6.13;1.40;;;;;;;-145.69;57.03;52182.97;5074329;28;20206;-76
2024/04/06 01:45:10;;;;;;;1.73;0.90;;;;;;;-145.69;56.80;52175.06;5074253;28;20202;-76
2024/04/06 01:47:37;;;;;;;3.57;1.00;;;;;;;-145.69;57.39;52175.06;5073954;28;20283;-77
2024/04/06 01:50:05;;;;;;;8.53;1.20;;;;;;;-145.69;57.41;52147.34;5074498;28;20293;-77
2024/04/06 01:52:32;;;;;;;3.07;1.17;;;;;;;-145.69;56.92;52196.84;5074321;28;20248;-77
2024/04/06 01:55:05;;;;;;;2.73;1.10;;;;;;;-145.69;57.04;52163.19;5074152;28;20531;-76
2024/04/06 01:57:31;;;;;;;3.43;0.93;;;;;;;-145.69;57.17;52173.09;5077142;28;20198;-77
2024/04/06 01:59:58;;;;;;;1.27;1.00;;;;;;;-145.69;56.95;52171.09;5093707;28;20190;-77
2024/04/06 02:02:25;;;;;;;3.40;1.13;;;;;;;-145.69;57.30;52194.88;5093384;28;20201;-77
2024/04/06 02:04:50;;;;;;;3.43;1.20;;;;;;;-145.69;56.91;52165.16;5093779;28;20199;-76
2024/04/06 02:07:17;;;;;;;2.73;1.20;;;;;;;-145.69;57.22;52171.09;5089092;28;20240;-77
2024/04/06 02:09:43;;;;;;;5.77;1.30;;;;;;;-145.69;56.72;52175.06;5080866;28;20251;-77
2024/04/06 02:12:09;;;;;;;2.17;1.20;;;;;;;-145.69;57.22;52161.19;5093855;28;20542;-77
2024/04/06 02:14:35;;;;;;;3.00;1.00;;;;;;;-145.69;56.59;52163.19;5093938;28;20720;-77
2024/04/06 02:17:04;;;;;;;2.33;1.10;;;;;;;-145.69;57.28;52147.34;5093576;28;20309;-76
2024/04/06 02:19:29;;;;;;;2.53;1.30;;;;;;;-145.69;56.79;52151.28;5094012;28;20240;-77
2024/04/06 02:21:56;;;;;;;1.37;0.97;;;;;;;-145.69;56.85;52173.09;5093335;28;20230;-76
2024/04/06 02:24:22;;;;;;;1.10;1.00;;;;;;;-145.69;57.15;52165.16;5088233;28;20198;-76
2024/04/06 02:26:48;;;;;;;1.43;1.10;;;;;;;-145.69;56.91;52165.16;5073490;28;20321;-76
2024/04/06 02:29:14;;;;;;;3.53;1.17;;;;;;;-145.69;56.80;52131.50;5090761;28;20202;-76
2024/04/06 02:31:41;;;;;;;2.00;1.27;;;;;;;-145.69;56.66;52163.19;5093599;28;20198;-77
2024/04/06 02:34:09;;;;;;;2.60;1.10;;;;;;;-145.69;56.45;52171.09;5093778;28;20557;-76
2024/04/06 02:36:35;;;;;;;1.30;1.20;;;;;;;-145.69;56.20;52153.28;5093667;28;20195;-76
2024/04/06 02:39:01;;;;;;;7.57;1.10;;;;;;;-145.69;56.25;52179.03;5093319;28;20202;-76
2024/04/06 02:41:27;;;;;;;1.83;1.00;;;;;;;-145.69;55.63;52153.28;5087027;28;20557;-78
2024/04/06 02:43:53;;;;;;;3.27;1.10;;;;;;;-145.69;55.64;52177.03;5073113;28;20198;-76
2024/04/06 02:46:20;;;;;;;6.83;1.30;;;;;;;-145.69;56.18;52165.16;5072987;28;20237;-76
2024/04/06 02:48:47;;;;;;;0.90;0.80;;;;;;;-145.69;56.48;52155.25;5073260;28;20719;-77
2024/04/06 02:51:16;;;;;;;4.73;1.30;;;;;;;-145.69;56.70;52173.09;5093714;28;20193;-76
2024/04/06 02:53:42;;;;;;;2.73;1.10;;;;;;;-145.69;56.59;52167.13;5113732;28;20208;-77
2024/04/06 02:56:08;;;;;;;1.23;0.97;;;;;;;-145.69;56.92;52175.06;5113349;27;20201;-76
2024/04/06 02:58:36;;;;;;;4.03;1.20;;;;;;;-145.69;56.25;52179.03;5094079;28;20430;-76
2024/04/06 03:01:03;;;;;;;3.90;1.20;;;;;;;-145.69;56.80;52194.88;5072191;28;20448;-76
2024/04/06 03:03:29;;;;;;;3.00;1.63;;;;;;;-145.69;56.17;52190.91;5072828;28;20238;-77
2024/04/06 03:05:55;;;;;;;1.13;1.00;;;;;;;-145.69;56.62;52163.19;5084301;28;20256;-77
2024/04/06 03:08:22;;;;;;;2.97;1.20;;;;;;;-145.69;56.87;52145.34;5093181;28;20234;-76
2024/04/06 03:10:48;;;;;;;2.03;1.15;;;;;;;-145.69;57.53;52171.09;5091731;28;20515;-76
2024/04/06 03:13:16;;;;;;;8.87;1.20;;;;;;;-145.69;56.97;52181.00;5091948;28;20197;-76
2024/04/06 03:15:42;;;;;;;3.40;1.10;;;;;;;-145.69;56.39;52186.94;5082349;28;20202;-76
2024/04/06 03:18:08;;;;;;;3.40;1.10;;;;;;;-145.69;56.12;52157.25;5092850;28;20692;-77
2024/04/06 03:20:35;;;;;;;1.17;0.90;;;;;;;-145.69;56.12;52184.97;5092910;28;20236;-76
2024/04/06 03:23:03;;;;;;;2.93;1.33;;;;;;;-145.69;56.81;52177.03;5092961;28;20198;-76
2024/04/06 03:25:32;;;;;;;3.33;1.20;;;;;;;-145.69;56.58;52171.09;5092869;28;20239;-77
2024/04/06 03:27:58;;;;;;;3.63;1.00;;;;;;;-145.69;57.44;52214.66;5092218;28;20222;-76
2024/04/06 03:30:25;;;;;;;1.67;1.00;;;;;;;-145.69;57.73;52171.09;5091917;28;20766;-76
2024/04/06 03:32:51;;;;;;;4.50;1.50;;;;;;;-145.69;57.77;52175.06;5082373;28;20566;-76
2024/04/06 03:35:22;;;;;;;2.20;1.40;;;;;;;-145.69;57.66;52198.81;5072405;28;20654;-76
2024/04/06 03:37:50;;;;;;;1.20;1.10;;;;;;;-145.69;57.62;52208.72;5072594;28;20241;-76
2024/04/06 03:40:17;;;;;;;1.73;1.00;;;;;;;-145.69;57.35;52200.81;5072215;28;20199;-76
2024/04/06 03:42:55;;;;;;;2.93;1.20;;;;;;;-145.69;56.94;52173.09;5072387;28;20281;-76
2024/04/06 03:45:21;;;;;;;2.60;1.10;;;;;;;-145.69;57.34;52184.97;5072829;28;20230;-76
2024/04/06 03:47:48;;;;;;;2.17;1.13;;;;;;;-145.69;57.77;52186.94;5072469;28;20642;-76
2024/04/06 03:50:18;;;;;;;3.80;1.27;;;;;;;-145.69;57.38;52182.97;5072959;28;20206;-76
2024/04/06 03:52:45;;;;;;;4.13;1.00;;;;;;;-145.69;57.54;52196.84;5072168;28;20205;-76
2024/04/06 03:55:12;;;;;;;1.63;1.20;;;;;;;-145.69;57.74;52186.94;5072298;28;20222;-76
2024/04/06 03:57:37;;;;;;;1.77;1.00;;;;;;;-145.69;58.59;52208.72;5074963;28;20198;-76
2024/04/06 04:00:08;;;;;;;4.70;1.13;;;;;;;-145.69;58.33;52220.59;5092687;28;20665;-76
2024/04/06 04:02:35;;;;;;;3.57;0.93;;;;;;;-145.69;59.37;52200.81;5092330;28;20707;-76
2024/04/06 04:05:02;;;;;;;3.77;1.13;;;;;;;-145.69;58.64;52181.00;5092523;28;20198;-77
2024/04/06 04:07:27;;;;;;;1.30;1.10;;;;;;;-145.69;58.83;52167.13;5077193;28;20230;-76
2024/04/06 04:09:54;;;;;;;1.93;1.30;;;;;;;-145.69;58.97;52198.81;5071839;28;20203;-77
2024/04/06 04:12:22;;;;;;;1.60;1.00;;;;;;;-145.69;59.09;52186.94;5087274;28;20272;-75
2024/04/06 04:14:51;;;;;;;3.77;1.17;;;;;;;-145.69;59.51;52202.78;5096355;28;20202;-75
2024/04/06 04:17:18;;;;;;;5.40;1.20;;;;;;;-145.69;59.51;52171.09;5095863;28;20233;-77
2024/04/06 04:19:45;;;;;;;4.47;1.30;;;;;;;-145.69;59.31;52198.81;5095928;28;20198;-75
2024/04/06 04:22:13;;;;;;;4.50;1.30;;;;;;;-145.69;59.69;52206.75;5096184;28;20255;-78
2024/04/06 04:24:40;;;;;;;2.73;1.40;;;;;;;-145.69;59.70;52214.66;5095582;28;20259;-77
2024/04/06 04:27:06;;;;;;;2.20;1.07;;;;;;;-145.69;60.22;52228.53;5095833;28;20584;-76
2024/04/06 04:29:32;;;;;;;3.50;1.13;;;;;;;-145.69;59.99;52190.91;5095742;28;20209;-77
2024/04/06 04:32:01;;;;;;;2.77;1.30;;;;;;;-145.69;60.31;52184.97;5095950;28;20649;-77
2024/04/06 04:34:33;;;;;;;3.00;1.20;;;;;;;-145.69;60.24;52230.50;5096074;28;20209;-76
2024/04/06 04:37:04;;;;;;;2.23;1.23;;;;;;;-145.69;59.91;52175.06;5096361;28;20245;-77
2024/04/06 04:39:31;;;;;;;1.37;1.27;;;;;;;-145.69;59.56;52206.75;5096039;28;20229;-77
2024/04/06 04:41:59;;;;;;;3.80;1.20;;;;;;;-145.69;60.00;52181.00;5076558;28;20292;-76
2024/04/06 04:44:26;;;;;;;1.57;1.27;;;;;;;-145.69;60.10;52202.78;5075433;28;20206;-77
2024/04/06 04:46:52;;;;;;;1.90;1.20;;;;;;;-145.69;60.09;52194.88;5075391;28;20230;-78
2024/04/06 04:49:18;;;;;;;2.87;1.30;;;;;;;-145.69;60.29;52194.88;5075280;28;20202;-77
2024/04/06 04:51:45;;;;;;;4.47;1.23;;;;;;;-145.69;59.93;52175.06;5075284;28;20199;-77
2024/04/06 04:54:15;;;;;;;2.80;1.07;;;;;;;-145.69;60.54;52214.66;5075200;28;20539;-77
2024/04/06 04:56:40;;;;;;;2.73;1.40;;;;;;;-145.69;60.64;52167.13;5075301;28;20194;-77
2024/04/06 04:59:08;;;;;;;3.30;1.43;;;;;;;-145.69;61.22;52200.81;5088645;28;20209;-77
2024/04/06 05:01:34;;;;;;;2.23;1.20;;;;;;;-145.69;60.24;52210.72;5095423;28;20684;-77
2024/04/06 05:04:00;;;;;;;2.83;1.40;;;;;;;-145.69;61.41;52179.03;5095220;28;20204;-77
2024/04/06 05:06:26;;;;;;;4.10;1.30;;;;;;;-145.69;60.92;52200.81;5095227;28;20222;-77
2024/04/06 05:08:53;;;;;;;2.53;1.10;;;;;;;-145.69;60.44;52202.78;5091329;28;20439;-77
2024/04/06 05:11:19;;;;;;;3.43;1.20;;;;;;;-145.69;61.33;52186.94;5094980;28;20579;-76
2024/04/06 05:13:45;;;;;;;4.80;1.43;;;;;;;-145.69;60.86;52208.72;5094647;28;20202;-77
2024/04/06 05:16:11;;;;;;;2.83;1.40;;;;;;;-145.69;61.02;52175.06;5074416;28;20608;-76
2024/04/06 05:18:38;;;;;;;3.60;1.40;;;;;;;-145.69;60.66;52171.09;5074768;28;20215;-76
2024/04/06 05:21:06;;;;;;;3.93;1.23;;;;;;;-145.69;60.41;52196.84;5074522;28;20527;-76
2024/04/06 05:23:33;;;;;;;2.33;1.30;;;;;;;-145.69;60.83;52179.03;5073726;28;20705;-76
2024/04/06 05:26:00;;;;;;;2.73;1.47;;;;;;;-145.69;60.22;52173.09;5074876;28;20209;-76
2024/04/06 05:28:26;;;;;;;1.70;1.00;;;;;;;-145.69;60.29;52177.03;5078908;28;20222;-76
2024/04/06 05:30:52;;;;;;;2.47;1.30;;;;;;;-145.69;59.91;52159.22;5075595;28;20260;-77
2024/04/06 05:33:20;;;;;;;2.30;1.43;;;;;;;-145.69;59.92;52159.22;5094756;28;20202;-76
2024/04/06 05:35:48;;;;;;;4.30;1.20;;;;;;;-145.69;59.89;52186.94;5094763;28;20735;-76
2024/04/06 05:38:15;;;;;;;3.20;1.20;;;;;;;-145.69;59.14;52179.03;5094161;28;20198;-76
2024/04/06 05:40:42;;;;;;;2.97;1.10;;;;;;;-145.69;59.46;52194.88;5094367;28;20198;-77
2024/04/06 05:43:10;;;;;;;3.77;1.57;;;;;;;-145.69;59.51;52175.06;5094514;28;20603;-76
2024/04/06 05:45:37;;;;;;;3.60;1.40;;;;;;;-145.69;60.05;52151.28;5094827;28;20605;-76
2024/04/06 05:48:04;;;;;;;2.33;1.43;;;;;;;-145.69;60.79;52163.19;5091579;28;20234;-76
2024/04/06 05:50:32;;;;;;;3.47;1.40;;;;;;;-145.69;60.38;52171.09;5074185;28;20206;-76
2024/04/06 05:52:59;;;;;;;1.70;1.20;;;;;;;-145.69;60.04;52163.19;5074068;28;20226;-76
2024/04/06 05:55:25;;;;;;;3.30;1.43;;;;;;;-145.69;60.02;52175.06;5086630;28;20194;-76
2024/04/06 05:57:52;;;;;;;4.33;1.53;;;;;;;-145.69;59.71;52190.91;5093629;28;20259;-77
2024/04/06 06:00:24;;;;;;;2.77;1.60;;;;;;;-145.69;59.31;52182.97;5094003;28;20652;-77
2024/04/06 06:02:53;;;;;;;1.97;1.20;;;;;;;-145.69;59.06;52143.38;5094372;28;20206;-77
2024/04/06 06:05:19;;;;;;;2.05;1.30;;;;;;;-145.69;59.76;52202.78;5088745;28;20199;-76
2024/04/06 06:07:55;;;;;;;2.30;1.42;;;;;;;-145.69;59.46;52161.19;5073810;28;20577;-76
2024/04/06 06:10:23;;;;;;;3.60;1.23;;;;;;;-145.69;59.21;52175.06;5081284;28;20212;-76
2024/04/06 06:12:50;;;;;;;3.25;1.40;;;;;;;-145.69;59.15;52151.28;5093943;28;20221;-77
2024/04/06 06:15:15;;;;;;;6.53;1.10;;;;;;;-145.69;59.05;52182.97;5093561;28;20218;-75
2024/04/06 06:17:43;;;;;;;5.50;1.42;;;;;;;-145.69;58.96;52149.31;5094046;28;20274;-76
2024/04/06 06:20:09;;;;;;;2.05;1.25;;;;;;;-145.69;58.59;52190.91;5093886;28;20205;-76
2024/04/06 06:22:36;;;;;;;2.75;1.50;;;;;;;-145.69;57.08;52163.19;5086285;28;20203;-76
2024/04/06 06:25:04;;;;;;;5.05;1.30;;;;;;;-145.69;57.73;52163.19;5073255;28;20662;-78
2024/04/06 06:27:32;;;;;;;2.88;1.10;;;;;;;-145.69;56.95;52175.06;5073607;28;20231;-78
2024/04/06 06:29:59;;;;;;;3.10;1.02;;;;;;;-145.69;56.47;52117.63;5092489;28;20248;-77
2024/04/06 06:32:25;;;;;;;5.88;1.40;;;;;;;-145.69;56.70;52141.41;5093335;28;20198;-76
2024/04/06 06:35:01;;;;;;;1.75;1.00;;;;;;;-145.69;55.47;52139.41;5092578;28;20206;-77
2024/04/06 06:37:27;;;;;;;4.80;1.10;;;;;;;-145.69;55.77;52131.50;5093117;28;20705;-77
2024/04/06 06:39:54;;;;;;;0.70;0.57;;;;;;;-145.69;54.01;52135.47;5083477;28;20203;-76
2024/04/06 06:42:20;;;;;;;7.30;1.10;;;;;;;-145.69;54.30;52143.38;5073306;28;20222;-76
2024/04/06 06:44:49;;;;;;;2.30;1.15;;;;;;;-145.69;51.33;52123.56;5073150;28;20281;-76
2024/04/06 06:47:15;;;;;;;1.75;1.00;;;;;;;-145.69;51.73;52137.44;5073134;28;20305;-76
2024/04/06 06:49:44;;;;;;;2.15;0.88;;;;;;;-145.69;50.05;52111.69;5073017;28;20199;-76
2024/04/06 06:52:11;;;;;;;1.88;1.10;;;;;;;-145.69;48.44;52113.66;5072664;28;20530;-76
2024/04/06 06:54:37;;;;;;;2.53;1.02;;;;;;;-145.69;49.61;52129.50;5073009;28;20199;-76
2024/04/06 06:57:06;;;;;;;2.10;0.90;;;;;;;-145.69;49.89;52123.56;5073413;28;20213;-76
2024/04/06 06:59:33;;;;;;;3.58;1.00;;;;;;;-145.69;48.72;52119.63;5088170;28;20204;-77
2024/04/06 07:01:59;;;;;;;5.65;1.38;;;;;;;-145.69;47.43;52133.47;5093091;28;20201;-77
2024/04/06 07:04:26;;;;;;;1.95;1.08;;;;;;;-145.69;46.18;52107.72;5092962;28;20668;-76
2024/04/06 07:06:59;;;;;;;4.57;1.10;;;;;;;-145.69;44.06;52113.66;5092884;28;20217;-77
2024/04/06 07:09:26;;;;;;;2.50;1.00;;;;;;;-145.69;42.74;52129.50;5092498;28;20194;-78
2024/04/06 07:11:55;;;;;;;1.85;1.40;;;;;;;-145.69;42.07;52129.50;5092770;28;20200;-77
2024/04/06 07:14:21;;;;;;;2.55;1.10;;;;;;;-145.69;41.34;52103.78;5079154;28;20676;-77
2024/04/06 07:16:48;;;;;;;2.50;1.17;;;;;;;-145.69;40.14;52085.94;5074744;28;20234;-76
2024/04/06 07:19:13;;;;;;;4.20;1.00;;;;;;;-145.69;39.78;52072.09;5072388;28;20198;-76
2024/04/06 07:21:39;;;;;;;2.22;0.70;;;;;;;-145.69;39.71;52085.94;5072859;28;20203;-76
2024/04/06 07:24:06;;;;;;;1.00;0.50;;;;;;;-145.69;39.53;52068.13;5072425;28;20206;-76
2024/04/06 07:26:34;;;;;;;4.80;0.93;;;;;;;-145.69;39.39;52080.00;5072481;28;20220;-77
2024/04/06 07:28:59;;;;;;;1.73;0.85;;;;;;;-145.69;38.01;52083.97;5083273;28;20233;-76
2024/04/06 07:31:26;;;;;;;3.70;0.85;;;;;;;-145.69;38.54;52056.25;5078231;28;20237;-77
2024/04/06 07:33:51;;;;;;;1.90;0.77;;;;;;;-145.69;37.46;52074.06;5072508;28;20198;-76
2024/04/06 07:36:18;;;;;;;2.72;0.90;;;;;;;-145.69;37.71;52052.28;5072421;28;20252;-76
2024/04/06 07:38:43;;;;;;;2.55;0.85;;;;;;;-145.69;37.91;52060.22;5072628;28;20214;-76
2024/04/06 07:41:10;;;;;;;3.13;0.82;;;;;;;-145.69;37.73;52074.06;5072399;28;20203;-76
2024/04/06 07:43:45;;;;;;;3.40;0.80;;;;;;;-145.69;37.70;52018.63;5072037;28;20297;-76
2024/04/06 07:46:12;;;;;;;4.88;0.90;;;;;;;-145.69;38.29;52042.38;5073225;28;20205;-76
2024/04/06 07:48:39;;;;;;;1.25;0.95;;;;;;;-145.69;38.45;52030.50;5077327;28;20241;-76
2024/04/06 07:51:06;;;;;;;5.88;1.60;;;;;;;-145.69;36.93;52040.41;5076524;28;20665;-77
2024/04/06 07:53:31;;;;;;;1.27;0.77;;;;;;;-145.69;37.43;52028.53;5076691;28;20195;-76
2024/04/06 07:55:59;;;;;;;2.85;0.77;;;;;;;-145.69;37.62;52030.50;5075539;28;20205;-76
2024/04/06 07:58:25;;;;;;;2.47;0.90;;;;;;;-145.69;37.39;52030.50;5081960;28;20764;-77
2024/04/06 08:00:53;;;;;;;2.92;0.80;;;;;;;-145.69;37.45;52022.59;5095951;28;20205;-76
2024/04/06 08:03:19;;;;;;;1.13;0.60;;;;;;;-145.69;37.52;52004.75;5096719;28;20205;-76
2024/04/06 08:05:49;;;;;;;2.13;0.70;;;;;;;-145.69;36.37;51973.06;5079056;28;20562;-76
2024/04/06 08:08:19;;;;;;;1.77;0.77;;;;;;;-145.69;34.32;51992.88;5075972;28;20222;-78
2024/04/06 08:10:44;;;;;;;2.10;0.82;;;;;;;-145.69;34.20;52008.72;5076157;28;20199;-78
2024/04/06 08:13:13;;;;;;;1.05;0.77;;;;;;;-145.69;34.75;51965.16;5075869;28;20198;-78
2024/04/06 08:15:41;;;;;;;2.35;0.70;;;;;;;-145.69;33.92;52000.81;5092895;28;20281;-78
2024/04/06 08:18:09;;;;;;;0.80;0.32;;;;;;;-145.69;34.15;51992.88;5095794;28;20241;-78
2024/04/06 08:20:34;;;;;;;2.90;0.90;;;;;;;-145.69;32.38;51959.22;5094858;28;20602;-78
2024/04/06 08:23:09;;;;;;;2.45;0.77;;;;;;;-145.69;33.02;52010.69;5076320;28;20213;-78
2024/04/06 08:25:37;;;;;;;4.13;0.80;;;;;;;-145.69;34.34;51996.84;5075652;28;20195;-78
2024/04/06 08:28:04;;;;;;;3.53;0.77;;;;;;;-145.69;34.34;51961.19;5077870;28;20238;-77
2024/04/06 08:30:30;;;;;;;0.98;0.57;;;;;;;-145.69;34.51;51971.09;5096191;28;20206;-78
2024/04/06 08:32:59;;;;;;;2.20;0.70;;;;;;;-145.69;33.72;51949.31;5095809;28;20221;-78
2024/04/06 08:35:26;;;;;;;3.97;0.90;;;;;;;-145.69;34.11;51957.25;5095173;28;20194;-78
2024/04/06 08:37:54;;;;;;;2.97;0.90;;;;;;;-145.69;33.92;51957.25;5094265;28;20202;-77
2024/04/06 08:40:25;;;;;;;1.13;0.60;;;;;;;-145.69;33.29;52008.72;5075480;28;20234;-78
2024/04/06 08:42:51;;;;;;;1.90;0.65;;;;;;;-145.69;32.87;51969.13;5094557;28;20202;-77
2024/04/06 08:45:18;;;;;;;1.52;0.70;;;;;;;-145.69;31.90;51947.34;5095585;28;20251;-77
2024/04/06 08:47:44;;;;;;;1.42;0.52;;;;;;;-145.69;32.45;51953.28;5094154;28;20283;-78
2024/04/06 08:50:10;;;;;;;1.95;0.85;;;;;;;-145.69;33.14;51953.28;5095638;28;20202;-69
2024/04/06 08:52:41;;;;;;;1.75;0.57;;;;;;;-145.69;33.00;51977.03;5095385;28;20740;-77
2024/04/06 08:55:10;;;;;;;2.15;0.70;;;;;;;-145.69;31.70;51937.44;5094813;28;20194;-78
2024/04/06 08:57:41;;;;;;;3.53;0.70;;;;;;;-145.69;32.60;51957.25;5094273;28;20689;-78
2024/04/06 09:00:11;;;;;;;2.17;0.70;;;;;;;-145.69;32.98;51953.28;5095351;28;20546;-78
2024/04/06 09:02:38;;;;;;;1.08;0.60;;;;;;;-145.69;32.61;51929.50;5095023;28;20267;-77
2024/04/06 09:05:07;;;;;;;1.95;0.60;;;;;;;-145.69;32.32;51945.34;5095025;28;20201;-76
2024/04/06 09:07:34;;;;;;;1.58;0.70;;;;;;;-145.69;32.27;51969.13;5094730;28;20225;-77
2024/04/06 09:10:01;;;;;;;0.95;0.80;;;;;;;-145.69;33.23;51971.09;5078181;28;20203;-78
2024/04/06 09:12:28;;;;;;;1.05;0.70;;;;;;;-145.69;32.34;51963.19;5087521;28;20657;-79
2024/04/06 09:14:55;;;;;;;1.98;0.80;;;;;;;-145.69;33.28;51965.16;5095141;28;20202;-78
2024/04/06 09:17:25;;;;;;;2.38;0.70;;;;;;;-145.69;33.30;51986.94;5094871;28;20589;-78
2024/04/06 09:19:53;;;;;;;1.02;0.60;;;;;;;-145.69;32.55;51965.16;5094781;28;20194;-78
2024/04/06 09:22:22;;;;;;;3.00;0.60;;;;;;;-145.69;33.02;51963.19;5094938;28;20660;-78
2024/04/06 09:24:48;;;;;;;2.22;0.80;;;;;;;-145.69;32.44;51973.06;5095148;28;20198;-78
2024/04/06 09:27:18;;;;;;;1.52;0.73;;;;;;;-145.69;32.57;51961.19;5094881;28;20865;-77
2024/04/06 09:29:47;;;;;;;1.75;0.50;;;;;;;-145.69;32.24;51969.13;5094236;28;20262;-77
2024/04/06 09:32:18;;;;;;;2.05;0.63;;;;;;;-145.69;32.94;51969.13;5093434;28;20670;-76
2024/04/06 09:34:48;;;;;;;2.22;0.60;;;;;;;-145.69;33.37;51959.22;5094612;28;20224;-77
2024/04/06 09:37:20;;;;;;;2.50;0.82;;;;;;;-145.69;33.54;51945.34;5094678;28;20194;-78
2024/04/06 09:39:47;;;;;;;3.28;0.80;;;;;;;-145.69;33.37;51961.19;5094793;28;20331;-77
2024/04/06 09:42:17;;;;;;;2.35;0.82;;;;;;;-145.69;33.59;51941.41;5094619;28;20279;-78
2024/04/06 09:44:44;;;;;;;2.25;0.63;;;;;;;-145.69;32.36;51911.69;5094261;28;20202;-77
2024/04/06 09:47:13;;;;;;;1.23;0.80;;;;;;;-145.69;31.38;51963.19;5094229;28;20198;-78
2024/04/06 09:49:39;;;;;;;2.35;0.82;;;;;;;-145.69;30.67;51977.03;5094163;28;20656;-79
2024/04/06 09:52:06;;;;;;;1.50;0.77;;;;;;;-145.69;32.71;51965.16;5094236;28;20198;-78
2024/04/06 09:54:32;;;;;;;1.55;0.80;;;;;;;-145.69;31.92;51955.25;5094077;28;20201;-79
2024/04/06 09:56:59;;;;;;;1.10;0.70;;;;;;;-145.69;31.00;51933.47;5094368;28;20198;-79
2024/04/06 09:59:28;;;;;;;1.40;0.70;;;;;;;-145.69;31.82;51913.69;5094048;28;20209;-79
2024/04/06 10:01:55;;;;;;;1.10;0.73;;;;;;;-145.69;31.73;51945.34;5094094;28;20209;-78
2024/04/06 10:04:23;;;;;;;2.67;0.70;;;;;;;-145.69;31.55;51971.09;5093849;28;20194;-79
2024/04/06 10:06:52;;;;;;;3.10;0.80;;;;;;;-145.69;30.31;51945.34;5092497;28;20299;-77
2024/04/06 10:09:18;;;;;;;1.05;0.70;;;;;;;-145.69;31.54;51961.19;5093575;28;20222;-78
2024/04/06 10:11:44;;;;;;;2.60;0.80;;;;;;;-145.69;32.27;51935.47;5093829;28;20602;-79
2024/04/06 10:14:10;;;;;;;2.13;0.77;;;;;;;-145.69;30.93;51931.50;5093932;28;20211;-78
2024/04/06 10:16:39;;;;;;;7.82;0.90;;;;;;;-145.69;31.72;51911.69;5093980;28;20238;-78
2024/04/06 10:19:06;;;;;;;1.25;0.70;;;;;;;-145.69;31.50;51937.44;5093625;28;20675;-79
2024/04/06 10:21:34;;;;;;;0.90;0.60;;;;;;;-145.69;31.39;51927.53;5080481;28;20195;-78
2024/04/06 10:24:02;;;;;;;1.10;0.75;;;;;;;-145.69;30.96;51949.31;5082265;28;20202;-78
2024/04/06 10:26:38;;;;;;;1.67;0.80;;;;;;;-145.69;30.46;51945.34;5093898;28;20210;-78
2024/04/06 10:29:04;;;;;;;1.55;0.70;;;;;;;-145.69;31.22;51923.56;5093688;28;20237;-78
2024/04/06 10:31:30;;;;;;;6.25;1.38;;;;;;;-145.69;31.68;51927.53;5093324;28;20599;-78
2024/04/06 10:33:57;;;;;;;1.48;0.80;;;;;;;-145.69;31.35;51929.50;5093516;28;20190;-79
2024/04/06 10:36:24;;;;;;;0.90;0.50;;;;;;;-145.69;30.75;51953.28;5093436;28;20205;-79
2024/04/06 10:38:53;;;;;;;1.88;0.70;;;;;;;-145.69;30.68;51907.72;5093330;28;20217;-78
2024/04/06 10:41:19;;;;;;;2.38;0.70;;;;;;;-145.69;31.99;51909.72;5093326;28;20206;-78
2024/04/06 10:43:48;;;;;;;0.77;0.70;;;;;;;-145.69;32.41;51917.63;5093615;28;20664;-79
2024/04/06 10:46:15;;;;;;;2.20;0.60;;;;;;;-145.69;30.88;51909.72;5093612;28;20198;-78
2024/04/06 10:48:40;;;;;;;0.90;0.60;;;;;;;-145.69;29.55;51927.53;5093207;28;20218;-78
2024/04/06 10:51:08;;;;;;;1.98;0.57;;;;;;;-145.69;30.11;51905.75;5093705;28;20743;-78
2024/04/06 10:53:34;;;;;;;1.85;0.65;;;;;;;-145.69;30.43;51878.03;5093286;28;20673;-78
2024/04/06 10:56:03;;;;;;;1.40;0.60;;;;;;;-145.69;30.16;51891.88;5092818;28;20201;-78
2024/04/06 10:58:28;;;;;;;2.00;0.63;;;;;;;-145.69;29.15;51891.88;5092984;28;20193;-78
2024/04/06 11:00:55;;;;;;;1.98;0.80;;;;;;;-145.69;28.53;51876.06;5090676;28;20686;-78
2024/04/06 11:03:21;;;;;;;4.00;0.70;;;;;;;-145.69;28.53;51903.78;5092739;28;20649;-78
2024/04/06 11:05:48;;;;;;;1.85;0.63;;;;;;;-145.69;28.85;51913.69;5093004;28;20206;-78
2024/04/06 11:08:15;;;;;;;1.02;0.55;;;;;;;-145.69;29.48;51891.88;5092874;28;20222;-77
2024/04/06 11:10:43;;;;;;;2.50;0.80;;;;;;;-145.69;29.28;51923.56;5092775;28;20700;-79
2024/04/06 11:13:09;;;;;;;1.08;0.70;;;;;;;-145.69;28.67;51883.97;5092800;28;20198;-77
2024/04/06 11:15:42;;;;;;;1.95;0.50;;;;;;;-145.69;28.14;51887.94;5092475;28;20209;-78